Plainfield Center, New York
Current Conditions -  °F | °C
As of 9:53 AM on Thursday 23 Oct 2014 (Local Time) from KRME Reporting Station
Overcast Overcast  
Wind Chill: 39°   Ceiling: 2000
Heat Index: 45°   Visibility: 10mi
Dew Point: 38°   Wind: 14mph
Humidity: 76%   Direction: 330°NNW
Pressure: 29.95"   Gusts: 22mph
Location:  42.8676°N, 75.1875°W
Report Text: KRME 231353Z 33012G19KT 10SM OVC020 07/03 A2995 RMK AO2 SLP143 T00720033
Loading
Personal Weather Stations






























Interactive Weather Map New forecast layout! Learn more

10-Day Weather Forecast

Advertisements
Track Severe Weather on mobile